createdAt,value
2023-05-19T00:01:49.384Z,3.95
2023-05-19T00:04:16.626Z,3.88
2023-05-19T00:06:44.852Z,3.35
2023-05-19T00:09:12.050Z,3.50
2023-05-19T00:11:39.604Z,3.50
2023-05-19T00:14:07.317Z,4.10
2023-05-19T00:16:34.512Z,3.90
2023-05-19T00:19:01.972Z,4.80
2023-05-19T00:21:28.940Z,4.28
2023-05-19T00:23:55.713Z,4.30
2023-05-19T00:26:22.842Z,4.10
2023-05-19T00:28:49.629Z,4.05
2023-05-19T00:31:16.425Z,3.30
2023-05-19T00:33:42.897Z,3.65
2023-05-19T00:36:09.386Z,3.65
2023-05-19T00:38:36.537Z,4.10
2023-05-19T00:41:03.864Z,3.67
2023-05-19T00:43:30.552Z,3.58
2023-05-19T00:45:57.236Z,3.42
2023-05-19T00:48:25.022Z,3.17
2023-05-19T00:50:52.106Z,4.03
2023-05-19T00:53:19.258Z,4.32
2023-05-19T00:55:46.414Z,3.80
2023-05-19T00:58:13.956Z,3.88
2023-05-19T01:00:40.735Z,4.15
2023-05-19T01:03:13.296Z,3.53
2023-05-19T01:05:41.754Z,3.58
2023-05-19T01:08:08.862Z,4.18
2023-05-19T01:10:35.498Z,4.10
2023-05-19T01:13:05.221Z,3.85
2023-05-19T01:15:36.154Z,3.92
2023-05-19T01:18:08.514Z,3.58
2023-05-19T01:20:55.285Z,3.55
2023-05-19T01:23:24.005Z,4.18
2023-05-19T01:25:57.021Z,3.53
2023-05-19T01:28:41.539Z,3.20
2023-05-19T01:31:10.090Z,3.47
2023-05-19T01:33:37.311Z,3.33
2023-05-19T01:36:05.614Z,3.78
2023-05-19T01:38:33.872Z,4.22
2023-05-19T01:41:01.408Z,3.97
2023-05-19T01:43:28.313Z,3.50
2023-05-19T01:45:55.224Z,3.80
2023-05-19T01:48:22.704Z,3.15
2023-05-19T01:50:49.169Z,3.63
2023-05-19T01:53:15.683Z,4.13
2023-05-19T01:55:43.931Z,3.53
2023-05-19T01:58:13.421Z,3.50
2023-05-19T02:00:56.269Z,3.72
2023-05-19T02:03:40.902Z,3.85
2023-05-19T02:06:26.206Z,3.67
2023-05-19T02:09:11.153Z,4.60
2023-05-19T02:11:38.592Z,4.10
2023-05-19T02:14:08.721Z,3.85
2023-05-19T02:16:36.411Z,4.10
2023-05-19T02:19:02.915Z,4.03
2023-05-19T02:21:29.398Z,4.53
2023-05-19T02:23:55.865Z,4.53
2023-05-19T02:26:22.847Z,4.60
2023-05-19T02:28:49.269Z,4.22
2023-05-19T02:31:15.717Z,4.68
2023-05-19T02:33:43.094Z,4.88
2023-05-19T02:36:10.132Z,3.97
2023-05-19T02:38:36.858Z,3.80
2023-05-19T02:41:03.456Z,3.15
2023-05-19T02:43:30.660Z,3.78
2023-05-19T02:45:57.087Z,4.13
2023-05-19T02:48:23.902Z,5.03
2023-05-19T02:50:50.346Z,4.90
2023-05-19T02:53:16.745Z,4.90
2023-05-19T02:55:43.174Z,4.43
2023-05-19T02:58:09.618Z,5.03
2023-05-19T03:00:36.075Z,4.40
2023-05-19T03:03:03.011Z,3.83
2023-05-19T03:05:30.474Z,4.35
2023-05-19T03:07:57.105Z,3.53
2023-05-19T03:10:23.588Z,4.53
2023-05-19T03:12:50.029Z,4.22
2023-05-19T03:15:16.472Z,4.68
2023-05-19T03:17:43.368Z,4.72
2023-05-19T03:20:11.854Z,3.70
2023-05-19T03:22:38.342Z,4.30
2023-05-19T03:25:04.923Z,3.72
2023-05-19T03:27:31.504Z,3.83
2023-05-19T03:29:57.949Z,3.50
2023-05-19T03:32:24.449Z,3.58
2023-05-19T03:34:51.200Z,3.05
2023-05-19T03:37:17.624Z,3.15
2023-05-19T03:39:44.033Z,3.55
2023-05-19T03:42:10.492Z,3.60
2023-05-19T03:44:36.978Z,2.85
2023-05-19T03:47:03.488Z,3.67
2023-05-19T03:49:29.906Z,3.30
2023-05-19T03:51:56.311Z,2.78
2023-05-19T03:54:22.903Z,2.63
2023-05-19T03:56:49.468Z,3.10
2023-05-19T03:59:16.254Z,3.33
2023-05-19T04:01:42.717Z,3.22
2023-05-19T04:04:09.189Z,4.20
2023-05-19T04:06:36.269Z,3.50
2023-05-19T04:09:03.795Z,3.75
2023-05-19T04:11:30.251Z,4.00
2023-05-19T04:13:56.761Z,3.17
2023-05-19T04:16:23.401Z,2.90
2023-05-19T04:18:50.073Z,3.05
2023-05-19T04:21:16.662Z,3.33
2023-05-19T04:23:43.504Z,2.63
2023-05-19T04:26:10.090Z,2.50
2023-05-19T04:28:40.083Z,3.20
2023-05-19T04:31:10.791Z,2.33
2023-05-19T04:33:37.706Z,2.40
2023-05-19T04:36:08.611Z,3.05
2023-05-19T04:38:36.875Z,2.90
2023-05-19T04:41:04.388Z,2.90
2023-05-19T04:43:31.554Z,3.08
2023-05-19T04:45:58.278Z,2.80
2023-05-19T04:48:24.788Z,2.90
2023-05-19T04:50:52.008Z,2.70
2023-05-19T04:53:18.710Z,3.03
2023-05-19T04:55:45.353Z,2.85
2023-05-19T04:58:11.839Z,2.90
2023-05-19T05:00:38.348Z,2.47
2023-05-19T05:03:07.810Z,2.72
2023-05-19T05:05:35.188Z,2.72
2023-05-19T05:08:01.606Z,3.03
2023-05-19T05:10:28.074Z,2.63
2023-05-19T05:12:54.612Z,2.70
2023-05-19T05:15:21.420Z,3.03
2023-05-19T05:17:48.093Z,2.70
2023-05-19T05:20:14.835Z,2.92
2023-05-19T05:22:42.080Z,2.92
2023-05-19T05:25:08.914Z,2.58
2023-05-19T05:27:36.548Z,2.88
2023-05-19T05:30:03.259Z,3.15
2023-05-19T05:32:29.892Z,3.25
2023-05-19T05:34:56.461Z,3.20
2023-05-19T05:37:22.942Z,3.10
2023-05-19T05:39:49.383Z,2.80
2023-05-19T05:42:16.298Z,2.50
2023-05-19T05:44:42.792Z,2.70
2023-05-19T05:47:09.401Z,2.72
2023-05-19T05:49:38.160Z,2.70
2023-05-19T05:52:06.812Z,2.90
2023-05-19T05:54:33.887Z,2.40
2023-05-19T05:57:00.731Z,2.83
2023-05-19T05:59:27.536Z,2.90
2023-05-19T06:01:54.049Z,3.03
2023-05-19T06:04:21.278Z,3.00
2023-05-19T06:06:47.940Z,2.88
2023-05-19T06:09:14.621Z,3.08
2023-05-19T06:11:41.233Z,2.50
2023-05-19T06:14:07.669Z,2.13
2023-05-19T06:16:34.200Z,2.58
2023-05-19T06:19:00.774Z,2.33
2023-05-19T06:21:27.268Z,2.40
2023-05-19T06:23:53.845Z,2.42
2023-05-19T06:26:21.004Z,2.75
2023-05-19T06:28:47.551Z,2.35
2023-05-19T06:31:14.030Z,2.35
2023-05-19T06:33:40.651Z,2.10
2023-05-19T06:36:08.544Z,2.67
2023-05-19T06:38:35.037Z,2.20
2023-05-19T06:41:01.579Z,2.45
2023-05-19T06:43:28.807Z,2.30
2023-05-19T06:45:55.276Z,2.60
2023-05-19T06:48:21.886Z,2.50
2023-05-19T06:50:48.286Z,2.22
2023-05-19T06:53:16.889Z,2.40
2023-05-19T06:55:54.760Z,2.67
2023-05-19T06:58:24.977Z,2.15
2023-05-19T07:00:51.439Z,2.03
2023-05-19T07:03:18.073Z,2.00
2023-05-19T07:05:44.639Z,2.20
2023-05-19T07:08:11.073Z,1.90
2023-05-19T07:10:37.628Z,2.05
2023-05-19T07:13:04.662Z,2.38
2023-05-19T07:15:31.247Z,1.70
2023-05-19T07:17:58.448Z,2.15
2023-05-19T07:20:25.013Z,1.90
2023-05-19T07:22:51.425Z,2.25
2023-05-19T07:25:17.878Z,2.22
2023-05-19T07:27:45.730Z,2.10
2023-05-19T07:30:12.410Z,2.40
2023-05-19T07:32:38.912Z,2.20
2023-05-19T07:35:06.162Z,2.58
2023-05-19T07:37:32.704Z,2.45
2023-05-19T07:39:59.137Z,2.60
2023-05-19T07:42:25.765Z,1.73
2023-05-19T07:44:52.243Z,2.10
2023-05-19T07:47:18.749Z,2.50
2023-05-19T07:49:45.230Z,1.60
2023-05-19T07:52:11.753Z,2.78
2023-05-19T07:54:38.313Z,2.00
2023-05-19T07:57:04.903Z,2.20
2023-05-19T07:59:31.567Z,1.88
2023-05-19T08:01:58.592Z,2.15
2023-05-19T08:04:25.137Z,2.28
2023-05-19T08:06:53.034Z,2.40
2023-05-19T08:09:20.169Z,2.47
2023-05-19T08:11:49.990Z,2.30
2023-05-19T08:14:16.624Z,2.72
2023-05-19T08:16:43.931Z,2.60
2023-05-19T08:19:10.475Z,2.70
2023-05-19T08:21:37.081Z,2.88
2023-05-19T08:24:04.366Z,3.20
2023-05-19T08:26:30.992Z,2.92
2023-05-19T08:28:57.459Z,2.63
2023-05-19T08:31:24.914Z,2.63
2023-05-19T08:33:51.564Z,2.25
2023-05-19T08:36:18.335Z,2.13
2023-05-19T08:38:44.919Z,2.67
2023-05-19T08:41:11.497Z,2.38
2023-05-19T08:43:39.403Z,2.35
2023-05-19T08:46:08.275Z,1.85
2023-05-19T08:48:35.474Z,2.88
2023-05-19T08:51:22.223Z,2.90
2023-05-19T08:53:50.764Z,2.55
2023-05-19T08:56:22.107Z,2.20
2023-05-19T08:58:49.474Z,2.80
2023-05-19T09:01:17.122Z,2.72
2023-05-19T09:03:44.602Z,2.30
2023-05-19T09:06:14.432Z,2.35
2023-05-19T09:08:42.213Z,2.30
2023-05-19T09:11:09.056Z,2.30
2023-05-19T09:13:35.604Z,2.97
2023-05-19T09:16:03.245Z,2.35
2023-05-19T09:18:29.911Z,2.72
2023-05-19T09:21:00.428Z,2.70
2023-05-19T09:23:28.760Z,2.95
2023-05-19T09:25:55.752Z,2.50
2023-05-19T09:28:26.283Z,2.65
2023-05-19T09:31:03.688Z,2.63
2023-05-19T09:33:31.090Z,2.58
2023-05-19T09:35:57.637Z,2.47
2023-05-19T09:38:25.004Z,2.22
2023-05-19T09:40:52.271Z,2.85
2023-05-19T09:43:18.792Z,2.10
2023-05-19T09:45:45.357Z,2.80
2023-05-19T09:48:12.733Z,2.38
2023-05-19T09:50:39.329Z,2.70
2023-05-19T09:53:05.845Z,2.63
2023-05-19T09:55:33.674Z,2.72
2023-05-19T09:58:03.827Z,2.53
2023-05-19T10:00:32.618Z,2.63
2023-05-19T10:03:00.436Z,2.17
2023-05-19T10:05:27.168Z,2.50
2023-05-19T10:07:54.612Z,2.47
2023-05-19T10:10:21.789Z,2.17
2023-05-19T10:12:48.590Z,2.05
2023-05-19T10:15:20.569Z,2.60
2023-05-19T10:17:50.156Z,2.70
2023-05-19T10:20:17.851Z,2.42
2023-05-19T10:22:46.018Z,2.25
2023-05-19T10:25:18.547Z,2.67
2023-05-19T10:27:50.082Z,2.20
2023-05-19T10:30:18.832Z,2.53
2023-05-19T10:32:46.848Z,2.60
2023-05-19T10:35:13.403Z,2.38
2023-05-19T10:37:58.862Z,2.63
2023-05-19T10:40:25.297Z,2.58
2023-05-19T10:43:04.492Z,2.17
2023-05-19T10:45:32.815Z,2.75
2023-05-19T10:47:59.519Z,2.20
2023-05-19T10:50:26.177Z,2.03
2023-05-19T10:52:55.599Z,2.08
2023-05-19T10:55:40.964Z,2.17
2023-05-19T10:58:07.654Z,2.45
2023-05-19T11:00:34.212Z,2.55
2023-05-19T11:03:13.661Z,2.50
2023-05-19T11:05:40.316Z,2.35
2023-05-19T11:08:12.093Z,2.63
2023-05-19T11:10:39.020Z,2.58
2023-05-19T11:13:06.453Z,2.20
2023-05-19T11:15:37.289Z,2.22
2023-05-19T11:18:04.826Z,3.00
2023-05-19T11:20:35.185Z,2.40
2023-05-19T11:23:14.790Z,3.05
2023-05-19T11:25:47.350Z,2.47
2023-05-19T11:28:20.736Z,2.15
2023-05-19T11:30:50.732Z,2.38
2023-05-19T11:33:20.119Z,2.30
2023-05-19T11:35:47.361Z,2.50
2023-05-19T11:38:14.318Z,2.38
2023-05-19T11:40:42.209Z,2.20
2023-05-19T11:43:08.677Z,2.10
2023-05-19T11:45:35.636Z,2.25
2023-05-19T11:48:05.621Z,2.15
2023-05-19T11:50:32.608Z,2.25
2023-05-19T11:52:59.929Z,2.60
2023-05-19T11:55:26.705Z,2.20
2023-05-19T12:00:29.414Z,2.22
2023-05-19T12:02:56.505Z,2.15
2023-05-19T12:05:24.163Z,2.25
2023-05-19T12:07:52.133Z,2.10
2023-05-19T12:10:23.136Z,2.60
2023-05-19T12:12:51.264Z,2.23
2023-05-19T12:15:21.904Z,1.83
2023-05-19T12:17:51.902Z,2.35
2023-05-19T12:20:19.814Z,2.60
2023-05-19T12:22:46.978Z,2.28
2023-05-19T12:25:13.871Z,2.55
2023-05-19T12:27:42.686Z,1.98
2023-05-19T12:30:09.901Z,2.13
2023-05-19T12:32:36.720Z,2.08
2023-05-19T12:35:06.493Z,1.95
2023-05-19T12:37:34.947Z,1.90
2023-05-19T12:40:02.077Z,2.10
2023-05-19T12:42:31.368Z,2.22
2023-05-19T12:45:00.682Z,2.40
2023-05-19T12:47:34.891Z,2.30
2023-05-19T12:50:03.289Z,2.08
2023-05-19T12:52:30.944Z,2.63
2023-05-19T12:55:01.612Z,1.88
2023-05-19T12:57:29.687Z,3.20
2023-05-19T13:00:07.006Z,2.20
2023-05-19T13:02:34.526Z,2.45
2023-05-19T13:05:01.037Z,2.40
2023-05-19T13:07:27.649Z,2.38
2023-05-19T13:09:54.446Z,1.88
2023-05-19T13:12:20.894Z,2.47
2023-05-19T13:14:47.297Z,2.13
2023-05-19T13:17:13.840Z,2.28
2023-05-19T13:19:40.368Z,2.28
2023-05-19T13:22:06.897Z,2.25
2023-05-19T13:24:33.529Z,2.45
2023-05-19T13:27:00.064Z,1.83
2023-05-19T13:29:28.222Z,1.88
2023-05-19T13:31:54.694Z,2.40
2023-05-19T13:34:21.114Z,2.20
2023-05-19T13:36:48.900Z,1.90
2023-05-19T13:39:15.668Z,2.40
2023-05-19T13:41:42.120Z,2.17
2023-05-19T13:44:08.611Z,2.20
2023-05-19T13:46:44.742Z,2.00
2023-05-19T13:49:12.993Z,2.25
2023-05-19T13:51:40.358Z,1.80
2023-05-19T13:54:06.814Z,2.03
2023-05-19T13:56:33.231Z,2.05
2023-05-19T13:58:59.744Z,2.35
2023-05-19T14:01:26.311Z,2.10
2023-05-19T14:03:53.153Z,2.45
2023-05-19T14:06:19.726Z,2.13
2023-05-19T14:08:46.470Z,2.08
2023-05-19T14:11:19.929Z,2.25
2023-05-19T14:13:49.084Z,2.50
2023-05-19T14:16:16.934Z,2.15
2023-05-19T14:18:43.867Z,2.22
2023-05-19T14:21:10.422Z,2.10
2023-05-19T14:23:36.939Z,2.22
2023-05-19T14:26:03.534Z,2.20
2023-05-19T14:28:29.991Z,2.15
2023-05-19T14:30:56.408Z,1.90
2023-05-19T14:33:22.944Z,2.25
2023-05-19T14:35:49.372Z,1.83
2023-05-19T14:38:15.921Z,2.15
2023-05-19T14:40:42.968Z,2.47
2023-05-19T14:43:09.599Z,2.15
2023-05-19T14:45:36.099Z,2.15
2023-05-19T14:48:02.588Z,2.17
2023-05-19T14:50:30.813Z,1.92
2023-05-19T14:52:57.894Z,2.05
2023-05-19T14:55:24.319Z,2.33
2023-05-19T14:57:50.914Z,1.85
2023-05-19T15:00:18.005Z,2.13
2023-05-19T15:02:44.642Z,1.98
2023-05-19T15:05:11.825Z,2.10
2023-05-19T15:07:38.326Z,2.22
2023-05-19T15:10:05.038Z,2.08
2023-05-19T15:12:31.534Z,1.73
2023-05-19T15:14:58.090Z,1.90
2023-05-19T15:17:24.633Z,2.10
2023-05-19T15:19:51.090Z,2.75
2023-05-19T15:22:17.668Z,2.13
2023-05-19T15:24:44.244Z,1.77
2023-05-19T15:27:10.905Z,2.20
2023-05-19T15:29:37.373Z,1.75
2023-05-19T15:32:03.906Z,2.28
2023-05-19T15:34:30.438Z,2.95
2023-05-19T15:36:56.910Z,2.10
2023-05-19T15:39:23.374Z,2.00
2023-05-19T15:41:52.905Z,2.08
2023-05-19T15:44:19.402Z,2.33
2023-05-19T15:46:46.022Z,2.15
2023-05-19T15:49:13.225Z,2.45
2023-05-19T15:51:39.809Z,2.58
2023-05-19T15:54:06.281Z,2.42
2023-05-19T15:56:32.694Z,2.00
2023-05-19T15:58:59.242Z,2.10
2023-05-19T16:01:26.417Z,2.10
2023-05-19T16:03:53.176Z,2.33
2023-05-19T16:06:20.572Z,2.35
2023-05-19T16:08:47.099Z,2.10
2023-05-19T16:11:14.519Z,1.95
2023-05-19T16:13:40.957Z,2.03
2023-05-19T16:16:07.519Z,2.22
2023-05-19T16:18:34.069Z,1.92
2023-05-19T16:21:00.546Z,2.22
2023-05-19T16:23:27.574Z,1.77
2023-05-19T16:25:54.884Z,2.05
2023-05-19T16:28:22.520Z,1.90
2023-05-19T16:30:51.017Z,2.20
2023-05-19T16:33:17.593Z,1.95
2023-05-19T16:35:44.094Z,1.92
2023-05-19T16:38:10.531Z,1.90
2023-05-19T16:40:37.169Z,1.98
2023-05-19T16:43:03.817Z,2.28
2023-05-19T16:45:30.381Z,1.85
2023-05-19T16:47:57.046Z,2.30
2023-05-19T16:50:23.628Z,2.10
2023-05-19T16:52:50.076Z,2.17
2023-05-19T16:55:19.780Z,2.20
2023-05-19T16:57:46.773Z,2.67
2023-05-19T17:00:13.539Z,2.15
2023-05-19T17:02:40.179Z,1.98
2023-05-19T17:05:06.837Z,2.10
2023-05-19T17:07:33.271Z,2.50
2023-05-19T17:09:59.694Z,2.00
2023-05-19T17:12:26.120Z,2.30
2023-05-19T17:14:52.805Z,2.20
2023-05-19T17:17:19.258Z,2.13
2023-05-19T17:19:46.680Z,2.40
2023-05-19T17:22:13.174Z,1.92
2023-05-19T17:24:39.719Z,2.10
2023-05-19T17:27:06.205Z,2.35
2023-05-19T17:29:32.682Z,1.95
2023-05-19T17:31:59.209Z,2.20
2023-05-19T17:34:25.713Z,1.98
2023-05-19T17:36:52.135Z,2.33
2023-05-19T17:39:20.287Z,1.85
2023-05-19T17:41:46.834Z,2.13
2023-05-19T17:44:13.266Z,2.15
2023-05-19T17:46:39.786Z,2.38
2023-05-19T17:49:06.636Z,1.65
2023-05-19T17:51:33.159Z,2.55
2023-05-19T17:53:59.751Z,2.00
2023-05-19T17:56:26.895Z,2.10
2023-05-19T17:58:53.497Z,2.13
2023-05-19T18:01:23.777Z,2.08
2023-05-19T18:03:50.772Z,2.15
2023-05-19T18:06:17.787Z,2.78
2023-05-19T18:08:47.021Z,2.85
2023-05-19T18:11:16.135Z,2.65
2023-05-19T18:13:42.922Z,3.40
2023-05-19T18:16:09.902Z,2.60
2023-05-19T18:18:37.488Z,2.67
2023-05-19T18:21:04.037Z,2.50
2023-05-19T18:23:30.573Z,2.88
2023-05-19T18:25:57.046Z,2.60
2023-05-19T18:28:24.040Z,2.83
2023-05-19T18:31:03.603Z,2.33
2023-05-19T18:33:31.100Z,2.80
2023-05-19T18:35:58.129Z,2.85
2023-05-19T18:38:24.752Z,2.38
2023-05-19T18:40:51.338Z,2.40
2023-05-19T18:43:18.285Z,2.90
2023-05-19T18:45:46.888Z,2.50
2023-05-19T18:48:13.580Z,2.20
2023-05-19T18:50:40.963Z,2.78
2023-05-19T18:53:07.371Z,2.60
2023-05-19T18:55:34.060Z,2.70
2023-05-19T18:58:01.755Z,3.45
2023-05-19T19:00:28.626Z,2.88
2023-05-19T19:02:55.094Z,3.17
2023-05-19T19:05:21.624Z,3.00
2023-05-19T19:07:48.164Z,2.90
2023-05-19T19:10:15.226Z,2.88
2023-05-19T19:12:41.713Z,2.88
2023-05-19T19:15:08.422Z,3.25
2023-05-19T19:17:34.901Z,2.85
2023-05-19T19:20:01.408Z,2.67
2023-05-19T19:22:28.011Z,2.97
2023-05-19T19:24:54.543Z,3.03
2023-05-19T19:27:21.381Z,3.20
2023-05-19T19:29:47.910Z,2.75
2023-05-19T19:32:14.425Z,2.42
2023-05-19T19:34:41.084Z,2.75
2023-05-19T19:37:07.544Z,2.70
2023-05-19T19:39:34.365Z,2.40
2023-05-19T19:42:00.836Z,2.70
2023-05-19T19:44:27.276Z,2.60
2023-05-19T19:46:53.873Z,2.53
2023-05-19T19:49:20.447Z,2.78
2023-05-19T19:51:46.878Z,3.42
2023-05-19T19:54:13.299Z,4.40
2023-05-19T19:56:39.866Z,3.20
2023-05-19T19:59:06.394Z,3.25
2023-05-19T20:01:33.771Z,4.47
2023-05-19T20:04:01.057Z,4.20
2023-05-19T20:06:27.806Z,4.25
2023-05-19T20:08:54.339Z,4.03
2023-05-19T20:11:22.916Z,3.65
2023-05-19T20:13:49.372Z,3.15
2023-05-19T20:16:16.071Z,2.65
2023-05-19T20:18:42.615Z,2.70
2023-05-19T20:21:09.067Z,3.00
2023-05-19T20:23:35.672Z,2.78
2023-05-19T20:26:11.136Z,2.58
2023-05-19T20:28:38.807Z,2.67
2023-05-19T20:31:06.381Z,2.92
2023-05-19T20:33:32.848Z,2.72
2023-05-19T20:35:59.327Z,2.17
2023-05-19T20:38:25.851Z,2.22
2023-05-19T20:40:54.196Z,2.55
2023-05-19T20:43:20.793Z,2.80
2023-05-19T20:45:47.251Z,2.42
2023-05-19T20:48:15.674Z,2.38
2023-05-19T20:50:42.273Z,2.58
2023-05-19T20:53:08.726Z,2.28
2023-05-19T20:55:38.268Z,2.50
2023-05-19T20:58:04.900Z,2.25
2023-05-19T21:00:31.460Z,2.42
2023-05-19T21:02:58.171Z,2.38
2023-05-19T21:05:24.804Z,2.78
2023-05-19T21:07:51.309Z,2.65
2023-05-19T21:10:17.967Z,2.20
2023-05-19T21:12:44.550Z,2.50
2023-05-19T21:15:11.293Z,2.17
2023-05-19T21:17:37.821Z,2.50
2023-05-19T21:20:04.672Z,2.38
2023-05-19T21:22:31.197Z,2.33
2023-05-19T21:24:58.034Z,2.70
2023-05-19T21:27:24.535Z,2.10
2023-05-19T21:29:52.752Z,2.33
2023-05-19T21:32:19.354Z,2.55
2023-05-19T21:34:45.859Z,2.20
2023-05-19T21:37:12.302Z,2.25
2023-05-19T21:39:38.796Z,2.58
2023-05-19T21:42:06.443Z,2.25
2023-05-19T21:44:33.012Z,2.40
2023-05-19T21:46:59.561Z,1.73
2023-05-19T21:49:26.106Z,2.00
2023-05-19T21:51:52.585Z,2.20
2023-05-19T21:54:19.126Z,2.03
2023-05-19T21:56:45.642Z,2.00
2023-05-19T21:59:12.133Z,2.03
2023-05-19T22:04:05.415Z,2.10
2023-05-19T22:06:31.952Z,2.05
2023-05-19T22:09:01.186Z,1.90
2023-05-19T22:11:27.744Z,2.33
2023-05-19T22:13:57.193Z,2.38
2023-05-19T22:16:23.861Z,2.08
2023-05-19T22:18:50.624Z,2.33
2023-05-19T22:21:17.240Z,2.22
2023-05-19T22:23:43.994Z,1.90
2023-05-19T22:26:10.550Z,1.83
2023-05-19T22:28:37.050Z,2.20
2023-05-19T22:31:03.702Z,2.10
2023-05-19T22:33:30.171Z,1.95
2023-05-19T22:35:56.737Z,2.05
2023-05-19T22:38:23.232Z,1.85
2023-05-19T22:40:50.039Z,2.13
2023-05-19T22:43:16.574Z,1.90
2023-05-19T22:45:43.077Z,2.28
2023-05-19T22:48:09.672Z,2.28
2023-05-19T22:50:36.391Z,2.70
2023-05-19T22:53:02.822Z,2.70
2023-05-19T22:55:29.286Z,2.38
2023-05-19T22:57:56.045Z,2.95
2023-05-19T23:00:22.693Z,2.53
2023-05-19T23:02:49.471Z,2.50
2023-05-19T23:05:16.260Z,2.00
2023-05-19T23:07:42.768Z,2.30
2023-05-19T23:10:09.349Z,2.50
2023-05-19T23:12:35.829Z,2.20
2023-05-19T23:15:02.718Z,2.05
2023-05-19T23:17:29.277Z,2.38
2023-05-19T23:19:55.817Z,2.35
2023-05-19T23:22:22.364Z,2.10
2023-05-19T23:24:48.878Z,2.78
2023-05-19T23:27:15.342Z,2.53
2023-05-19T23:29:41.791Z,2.30
2023-05-19T23:32:08.264Z,2.40
2023-05-19T23:34:34.738Z,2.38
2023-05-19T23:37:01.201Z,2.65
2023-05-19T23:39:27.780Z,2.20
2023-05-19T23:41:54.226Z,1.83
2023-05-19T23:44:20.738Z,2.55
2023-05-19T23:46:47.199Z,2.00
2023-05-19T23:49:14.530Z,2.88
2023-05-19T23:51:41.017Z,2.55
2023-05-19T23:54:07.451Z,2.25
2023-05-19T23:56:33.860Z,2.50
2023-05-19T23:59:00.817Z,2.60
